NAY weather

Nayarit Airport
Champoton, Campeche, Mexico

Public forecast

Using degrees Celsius for public forecast. Weather courtesy of forecast.io.

METAR (pilot weather report)

Closest report is Ingeniero Alberto Acuña Ongay International Airport, 38.3 nm (71.0 km) NNW. Retrieved 2019/08/21 02:43 UTC (1 hour ago):

MMCP 210243Z 04005KT 7SM SCT070 BKN120 24/23 A2999 RMK 8/070

TAF (pilot weather forecast)

Forecast is more than 6 hours old.

Closest forecast is Ingeniero Alberto Acuña Ongay International Airport, 38.3 nm (71.0 km) NNW. Retrieved 2019/08/20 18:31 UTC (9 hours ago):

TAF MMCP 201728Z 2018/2118 09012KT P6SM SCT020 FM202100 04015KT P6SM BKN030CB TEMPO 2022/2102 2SM TSRA OVC010CB FM210300 06010KT 5SM RA BKN020 OVC080 PROB40 2104/2108 3SM TSRA BKN010CB FM210900 09015KT P6SM SCT015 BKN080